createdAt,value
2016-07-08T00:00:00.949Z,53.66
2016-07-08T00:01:00.979Z,53.66
2016-07-08T00:02:00.965Z,53.66
2016-07-08T00:03:00.971Z,53.66
2016-07-08T00:04:01.004Z,53.56
2016-07-08T00:05:00.990Z,53.56
2016-07-08T00:06:01.013Z,53.85
2016-07-08T00:07:01.020Z,53.47
2016-07-08T00:08:01.031Z,53.85
2016-07-08T00:09:01.038Z,54.14
2016-07-08T00:10:01.022Z,54.14
2016-07-08T00:11:01.054Z,53.66
2016-07-08T00:12:01.046Z,53.47
2016-07-08T00:13:01.059Z,53.56
2016-07-08T00:14:01.091Z,54.05
2016-07-08T00:15:01.077Z,53.95
2016-07-08T00:16:01.085Z,53.75
2016-07-08T00:17:01.106Z,53.66
2016-07-08T00:18:01.118Z,54.14
2016-07-08T00:19:01.120Z,53.66
2016-07-08T00:20:01.135Z,53.47
2016-07-08T00:21:01.149Z,53.85
2016-07-08T00:22:01.170Z,54.14
2016-07-08T00:23:01.158Z,53.75
2016-07-08T00:24:01.170Z,53.47
2016-07-08T00:25:01.193Z,53.66
2016-07-08T00:26:01.174Z,53.66
2016-07-08T00:27:01.175Z,53.66
2016-07-08T00:28:01.211Z,53.85
2016-07-08T00:29:01.215Z,53.66
2016-07-08T00:30:01.232Z,53.47
2016-07-08T00:31:01.210Z,53.75
2016-07-08T00:32:01.220Z,53.47
2016-07-08T00:33:01.255Z,53.66
2016-07-08T00:34:01.238Z,53.47
2016-07-08T00:35:01.255Z,53.85
2016-07-08T00:36:01.283Z,53.75
2016-07-08T00:37:01.277Z,53.47
2016-07-08T00:38:01.294Z,53.66
2016-07-08T00:39:01.285Z,53.37
2016-07-08T00:40:01.289Z,53.75
2016-07-08T00:41:01.309Z,53.75
2016-07-08T00:42:01.321Z,53.66
2016-07-08T00:43:01.345Z,53.56
2016-07-08T00:44:01.337Z,53.56
2016-07-08T00:45:01.976Z,53.56
2016-07-08T00:46:01.375Z,53.56
2016-07-08T00:47:01.351Z,53.56
2016-07-08T00:48:01.371Z,53.56
2016-07-08T00:49:01.369Z,53.85
2016-07-08T00:50:01.376Z,53.95
2016-07-08T00:51:01.408Z,53.66
2016-07-08T00:52:01.394Z,53.56
2016-07-08T00:53:01.405Z,54.05
2016-07-08T00:54:01.414Z,53.85
2016-07-08T00:55:01.422Z,53.56
2016-07-08T00:56:01.460Z,53.85
2016-07-08T00:57:01.818Z,53.66
2016-07-08T00:58:01.460Z,53.56
2016-07-08T00:59:01.488Z,53.85
2016-07-08T01:00:01.495Z,53.47
2016-07-08T01:01:01.494Z,53.85
2016-07-08T01:02:01.813Z,53.47
2016-07-08T01:03:01.776Z,53.66
2016-07-08T01:04:01.522Z,53.75
2016-07-08T01:05:01.508Z,53.66
2016-07-08T01:06:01.850Z,53.56
2016-07-08T01:07:01.757Z,53.66
2016-07-08T01:08:01.569Z,53.85
2016-07-08T01:09:01.547Z,54.05
2016-07-08T01:10:01.804Z,53.75
2016-07-08T01:11:01.784Z,53.85
2016-07-08T01:12:01.572Z,53.85
2016-07-08T01:13:01.598Z,54.05
2016-07-08T01:14:01.627Z,53.75
2016-07-08T01:15:01.606Z,53.66
2016-07-08T01:16:01.625Z,53.66
2016-07-08T01:17:01.644Z,54.05
2016-07-08T01:18:01.903Z,53.75
2016-07-08T01:19:01.798Z,53.95
2016-07-08T01:20:01.665Z,54.43
2016-07-08T01:21:01.642Z,53.85
2016-07-08T01:22:01.663Z,53.75
2016-07-08T01:23:01.699Z,53.66
2016-07-08T01:24:01.683Z,54.05
2016-07-08T01:25:01.693Z,53.75
2016-07-08T01:26:01.802Z,53.85
2016-07-08T01:27:01.711Z,54.14
2016-07-08T01:28:01.789Z,53.85
2016-07-08T01:29:01.751Z,53.75
2016-07-08T01:30:01.726Z,53.75
2016-07-08T01:31:01.769Z,53.66
2016-07-08T01:32:01.761Z,54.05
2016-07-08T01:33:01.856Z,53.85
2016-07-08T01:34:01.793Z,54.05
2016-07-08T01:35:01.766Z,53.75
2016-07-08T01:36:01.789Z,54.14
2016-07-08T01:37:01.820Z,54.14
2016-07-08T01:38:01.814Z,53.85
2016-07-08T01:39:01.814Z,54.05
2016-07-08T01:40:01.865Z,54.05
2016-07-08T01:41:01.827Z,53.95
2016-07-08T01:42:01.827Z,54.02
2016-07-08T01:43:01.861Z,53.75
2016-07-08T01:44:01.928Z,54.05
2016-07-08T01:45:01.919Z,53.95
2016-07-08T01:46:01.877Z,54.24
2016-07-08T01:47:01.890Z,53.95
2016-07-08T01:48:01.893Z,53.92
2016-07-08T01:49:01.896Z,54.05
2016-07-08T01:50:01.911Z,54.05
2016-07-08T01:51:01.961Z,53.85
2016-07-08T01:52:01.912Z,53.85
2016-07-08T01:53:01.938Z,54.05
2016-07-08T01:54:01.935Z,53.92
2016-07-08T01:55:02.276Z,53.95
2016-07-08T01:56:01.975Z,54.05
2016-07-08T01:57:01.962Z,53.95
2016-07-08T01:58:01.995Z,53.85
2016-07-08T01:59:01.982Z,53.83
2016-07-08T02:00:02.063Z,53.95
2016-07-08T02:01:02.002Z,53.83
2016-07-08T02:02:02.033Z,53.83
2016-07-08T02:03:02.023Z,53.92
2016-07-08T02:04:02.022Z,54.14
2016-07-08T02:05:02.042Z,54.02
2016-07-08T02:06:02.423Z,53.92
2016-07-08T02:07:02.264Z,53.85
2016-07-08T02:08:02.091Z,54.31
2016-07-08T02:09:02.061Z,54.05
2016-07-08T02:10:02.097Z,53.85
2016-07-08T02:11:02.357Z,54.05
2016-07-08T02:12:02.092Z,53.92
2016-07-08T02:13:02.248Z,54.02
2016-07-08T02:14:02.141Z,53.85
2016-07-08T02:15:02.335Z,54.21
2016-07-08T02:16:02.130Z,53.83
2016-07-08T02:17:02.332Z,54.33
2016-07-08T02:18:02.142Z,54.05
2016-07-08T02:19:02.162Z,53.95
2016-07-08T02:20:02.258Z,54.02
2016-07-08T02:21:02.169Z,54.14
2016-07-08T02:22:02.249Z,53.95
2016-07-08T02:23:02.206Z,54.05
2016-07-08T02:24:02.257Z,53.83
2016-07-08T02:25:02.233Z,54.11
2016-07-08T02:26:02.824Z,53.83
2016-07-08T02:27:02.269Z,53.92
2016-07-08T02:28:02.260Z,53.83
2016-07-08T02:29:02.587Z,54.11
2016-07-08T02:30:02.253Z,53.92
2016-07-08T02:31:02.279Z,54.02
2016-07-08T02:32:02.495Z,53.83
2016-07-08T02:33:02.496Z,54.05
2016-07-08T02:34:02.314Z,53.92
2016-07-08T02:35:02.305Z,53.92
2016-07-08T02:36:02.318Z,53.95
2016-07-08T02:37:02.336Z,54.05
2016-07-08T02:38:02.332Z,53.92
2016-07-08T02:39:02.354Z,53.92
2016-07-08T02:40:02.958Z,54.02
2016-07-08T02:41:02.346Z,53.95
2016-07-08T02:42:02.376Z,54.21
2016-07-08T02:43:02.366Z,53.83
2016-07-08T02:44:02.697Z,54.02
2016-07-08T02:45:02.503Z,53.85
2016-07-08T02:46:02.394Z,54.11
2016-07-08T02:47:02.411Z,53.92
2016-07-08T02:48:02.398Z,54.02
2016-07-08T02:49:02.428Z,54.02
2016-07-08T02:50:02.427Z,54.21
2016-07-08T02:51:02.499Z,54.6
2016-07-08T02:52:02.462Z,54.21
2016-07-08T02:53:02.472Z,54.11
2016-07-08T02:54:02.449Z,54.21
2016-07-08T02:55:02.486Z,54.11
2016-07-08T02:56:02.467Z,54.21
2016-07-08T02:57:02.610Z,54.11
2016-07-08T02:58:02.509Z,54.31
2016-07-08T02:59:02.502Z,54.21
2016-07-08T03:00:02.503Z,53.92
2016-07-08T03:01:02.558Z,54.21
2016-07-08T03:02:02.529Z,54.21
2016-07-08T03:03:02.554Z,54.21
2016-07-08T03:04:02.556Z,54.21
2016-07-08T03:05:02.558Z,54.21
2016-07-08T03:06:02.563Z,54.21
2016-07-08T03:07:02.558Z,54.21
2016-07-08T03:08:02.590Z,54.21
2016-07-08T03:09:02.577Z,54.21
2016-07-08T03:10:02.599Z,54.21
2016-07-08T03:11:02.703Z,54.21
2016-07-08T03:12:02.603Z,54.21
2016-07-08T03:13:02.644Z,54.31
2016-07-08T03:14:02.703Z,54.11
2016-07-08T03:15:02.660Z,54.21
2016-07-08T03:16:02.670Z,54.21
2016-07-08T03:17:02.679Z,54.21
2016-07-08T03:18:02.672Z,54.21
2016-07-08T03:19:02.664Z,54.21
2016-07-08T03:20:02.691Z,54.11
2016-07-08T03:21:02.694Z,54.4
2016-07-08T03:22:02.701Z,54.11
2016-07-08T03:23:02.732Z,54.4
2016-07-08T03:24:02.718Z,54.21
2016-07-08T03:25:02.735Z,54.21
2016-07-08T03:26:02.721Z,54.21
2016-07-08T03:27:02.728Z,54.21
2016-07-08T03:28:02.772Z,54.21
2016-07-08T03:29:02.769Z,54.21
2016-07-08T03:30:02.761Z,54.21
2016-07-08T03:31:02.792Z,54.11
2016-07-08T03:32:02.798Z,54.11
2016-07-08T03:33:02.982Z,54.21
2016-07-08T03:34:02.806Z,54.11
2016-07-08T03:35:02.799Z,54.31
2016-07-08T03:36:02.819Z,54.21
2016-07-08T03:37:02.836Z,54.21
2016-07-08T03:38:02.845Z,54.31
2016-07-08T03:39:02.857Z,54.21
2016-07-08T03:40:02.867Z,54.4
2016-07-08T03:41:02.864Z,54.31
2016-07-08T03:42:02.882Z,54.31
2016-07-08T03:43:02.879Z,54.21
2016-07-08T03:44:02.899Z,54.21
2016-07-08T03:45:02.915Z,54.31
2016-07-08T03:46:02.916Z,54.4
2016-07-08T03:47:02.913Z,54.4
2016-07-08T03:48:02.923Z,54.4
2016-07-08T03:49:02.944Z,54.4
2016-07-08T03:50:02.941Z,54.31
2016-07-08T03:51:02.957Z,54.4
2016-07-08T03:52:02.970Z,54.4
2016-07-08T03:53:02.970Z,54.4
2016-07-08T03:54:02.986Z,54.21
2016-07-08T03:55:03.003Z,54.11
2016-07-08T03:56:02.994Z,54.11
2016-07-08T03:57:03.001Z,54.5
2016-07-08T03:58:03.025Z,54.31
2016-07-08T03:59:03.006Z,54.11
2016-07-08T04:00:03.041Z,54.21
2016-07-08T04:01:03.040Z,54.21
2016-07-08T04:02:03.051Z,54.31
2016-07-08T04:03:03.038Z,54.31
2016-07-08T04:04:03.053Z,54.21
2016-07-08T04:05:03.088Z,54.11
2016-07-08T04:06:03.062Z,54.11
2016-07-08T04:07:03.083Z,54.21
2016-07-08T04:08:03.115Z,54.11
2016-07-08T04:09:03.123Z,54.21
2016-07-08T04:10:03.112Z,54.11
2016-07-08T04:11:03.128Z,54.21
2016-07-08T04:12:03.149Z,54.21
2016-07-08T04:13:03.159Z,54.21
2016-07-08T04:14:03.137Z,53.92
2016-07-08T04:15:03.150Z,54.21
2016-07-08T04:16:03.182Z,54.21
2016-07-08T04:17:03.167Z,54.21
2016-07-08T04:18:03.200Z,53.83
2016-07-08T04:19:03.202Z,53.83
2016-07-08T04:20:03.193Z,53.92
2016-07-08T04:21:03.211Z,53.92
2016-07-08T04:22:03.234Z,53.92
2016-07-08T04:23:03.218Z,53.83
2016-07-08T04:24:03.252Z,53.83
2016-07-08T04:25:03.238Z,53.92
2016-07-08T04:26:03.234Z,54.02
2016-07-08T04:27:03.274Z,54.05
2016-07-08T04:28:03.275Z,53.83
2016-07-08T04:29:03.259Z,53.83
2016-07-08T04:30:03.271Z,54.11
2016-07-08T04:31:03.287Z,54.33
2016-07-08T04:32:03.292Z,54.05
2016-07-08T04:33:03.358Z,53.83
2016-07-08T04:34:03.313Z,53.85
2016-07-08T04:35:03.354Z,53.92
2016-07-08T04:36:03.340Z,53.85
2016-07-08T04:37:03.350Z,54.05
2016-07-08T04:38:03.369Z,53.92
2016-07-08T04:39:03.369Z,53.95
2016-07-08T04:40:03.355Z,53.95
2016-07-08T04:41:03.364Z,54.02
2016-07-08T04:42:03.394Z,54.05
2016-07-08T04:43:03.379Z,54.02
2016-07-08T04:44:03.412Z,54.02
2016-07-08T04:45:03.407Z,54.05
2016-07-08T04:46:03.432Z,53.83
2016-07-08T04:47:03.427Z,53.75
2016-07-08T04:48:03.435Z,53.73
2016-07-08T04:49:03.465Z,53.75
2016-07-08T04:50:03.453Z,53.75
2016-07-08T04:51:03.457Z,53.73
2016-07-08T04:52:03.462Z,53.75
2016-07-08T04:53:03.475Z,53.56
2016-07-08T04:54:03.501Z,54.24
2016-07-08T04:55:03.495Z,53.85
2016-07-08T04:56:03.492Z,53.75
2016-07-08T04:57:03.520Z,53.75
2016-07-08T04:58:03.522Z,53.75
2016-07-08T04:59:03.555Z,53.66
2016-07-08T05:00:03.526Z,53.75
2016-07-08T05:01:03.545Z,53.66
2016-07-08T05:02:03.567Z,53.75
2016-07-08T05:03:03.563Z,53.85
2016-07-08T05:04:03.596Z,54.05
2016-07-08T05:05:03.601Z,53.75
2016-07-08T05:06:03.612Z,53.75
2016-07-08T05:07:03.620Z,53.75
2016-07-08T05:08:03.632Z,53.85
2016-07-08T05:09:03.628Z,53.95
2016-07-08T05:10:03.634Z,53.85
2016-07-08T05:11:03.621Z,53.85
2016-07-08T05:12:03.661Z,53.75
2016-07-08T05:13:03.637Z,53.75
2016-07-08T05:14:03.679Z,53.75
2016-07-08T05:15:03.678Z,53.85
2016-07-08T05:16:03.684Z,53.85
2016-07-08T05:17:03.703Z,54.33
2016-07-08T05:18:03.841Z,53.66
2016-07-08T05:19:03.712Z,53.66
2016-07-08T05:20:03.722Z,53.66
2016-07-08T05:21:03.716Z,53.37
2016-07-08T05:22:03.986Z,53.56
2016-07-08T05:23:03.740Z,53.47
2016-07-08T05:24:03.766Z,53.56
2016-07-08T05:25:03.736Z,53.85
2016-07-08T05:26:04.003Z,53.47
2016-07-08T05:27:03.944Z,53.66
2016-07-08T05:28:03.767Z,53.47
2016-07-08T05:29:03.781Z,53.56
2016-07-08T05:30:04.019Z,53.47
2016-07-08T05:31:03.812Z,53.56
2016-07-08T05:32:04.002Z,53.66
2016-07-08T05:33:03.835Z,53.66
2016-07-08T05:34:04.121Z,53.75
2016-07-08T05:35:03.948Z,53.66
2016-07-08T05:36:03.858Z,53.56
2016-07-08T05:37:03.875Z,53.66
2016-07-08T05:38:04.036Z,53.27
2016-07-08T05:39:03.886Z,53.75
2016-07-08T05:40:03.889Z,53.85
2016-07-08T05:41:03.902Z,53.47
2016-07-08T05:42:04.146Z,53.66
2016-07-08T05:43:04.010Z,53.85
2016-07-08T05:44:03.917Z,53.75
2016-07-08T05:45:03.917Z,53.75
2016-07-08T05:46:04.204Z,53.37
2016-07-08T05:47:03.946Z,53.47
2016-07-08T05:48:04.073Z,53.75
2016-07-08T05:49:03.966Z,53.37
2016-07-08T05:50:03.972Z,54.14
2016-07-08T05:51:03.973Z,53.56
2016-07-08T05:52:04.139Z,53.75
2016-07-08T05:53:04.014Z,54.05
2016-07-08T05:54:03.992Z,54.14
2016-07-08T05:55:04.000Z,53.47
2016-07-08T05:56:04.008Z,53.66
2016-07-08T05:57:04.042Z,53.85
2016-07-08T05:58:04.074Z,53.27
2016-07-08T05:59:04.057Z,53.66
2016-07-08T06:00:04.045Z,53.66
2016-07-08T06:01:04.104Z,53.66
2016-07-08T06:02:04.082Z,53.27
2016-07-08T06:03:04.342Z,53.47
2016-07-08T06:04:04.084Z,53.95
2016-07-08T06:05:04.096Z,53.66
2016-07-08T06:06:04.158Z,53.66
2016-07-08T06:07:04.110Z,54.14
2016-07-08T06:08:04.148Z,53.66
2016-07-08T06:09:04.252Z,54.24
2016-07-08T06:10:04.159Z,53.66
2016-07-08T06:11:04.171Z,53.47
2016-07-08T06:12:04.155Z,53.95
2016-07-08T06:13:04.189Z,53.66
2016-07-08T06:14:04.513Z,53.66
2016-07-08T06:15:04.206Z,54.05
2016-07-08T06:16:04.186Z,53.75
2016-07-08T06:17:04.194Z,53.66
2016-07-08T06:18:04.523Z,53.75
2016-07-08T06:19:04.245Z,54.24
2016-07-08T06:20:05.210Z,53.56
2016-07-08T06:21:04.249Z,53.75
2016-07-08T06:22:04.621Z,54.33
2016-07-08T06:23:04.273Z,53.95
2016-07-08T06:24:04.289Z,53.85
2016-07-08T06:25:04.284Z,53.75
2016-07-08T06:26:04.401Z,53.85
2016-07-08T06:27:04.614Z,53.85
2016-07-08T06:28:04.313Z,53.95
2016-07-08T06:29:04.313Z,53.85
2016-07-08T06:30:04.334Z,53.75
2016-07-08T06:31:04.391Z,53.85
2016-07-08T06:32:04.345Z,53.85
2016-07-08T06:33:04.349Z,54.43
2016-07-08T06:34:04.367Z,55.1
2016-07-08T06:35:04.388Z,55.88
2016-07-08T06:36:04.616Z,56.36
2016-07-08T06:37:04.605Z,56.26
2016-07-08T06:38:04.385Z,56.1
2016-07-08T06:39:04.687Z,56.56
2016-07-08T06:40:04.409Z,56.36
2016-07-08T06:41:04.442Z,56.56
2016-07-08T06:42:04.701Z,56.56
2016-07-08T06:43:04.459Z,56.84
2016-07-08T06:44:04.597Z,56.58
2016-07-08T06:45:04.484Z,56.77
2016-07-08T06:46:04.763Z,56.74
2016-07-08T06:47:04.533Z,57.06
2016-07-08T06:48:04.490Z,56.96
2016-07-08T06:49:04.482Z,57.35
2016-07-08T06:50:04.843Z,57.16
2016-07-08T06:51:04.519Z,57.26
2016-07-08T06:52:04.707Z,57.45
2016-07-08T06:53:04.544Z,57.45
2016-07-08T06:54:04.657Z,57.74
2016-07-08T06:55:04.737Z,57.93
2016-07-08T06:56:04.542Z,57.62
2016-07-08T06:57:04.556Z,57.42
2016-07-08T06:58:04.560Z,57.52
2016-07-08T06:59:04.594Z,57.32
2016-07-08T07:00:04.657Z,57.35
2016-07-08T07:01:04.613Z,57.23
2016-07-08T07:02:04.705Z,57.32
2016-07-08T07:03:04.628Z,57.45
2016-07-08T07:04:04.616Z,57.54
2016-07-08T07:05:04.753Z,57.26
2016-07-08T07:06:04.652Z,57.54
2016-07-08T07:07:04.660Z,57.84
2016-07-08T07:08:04.674Z,57.45
2016-07-08T07:09:04.680Z,57.45
2016-07-08T07:10:04.676Z,57.06
2016-07-08T07:11:04.686Z,57.26
2016-07-08T07:12:04.782Z,57.35
2016-07-08T07:13:04.716Z,57.64
2016-07-08T07:14:04.724Z,57.74
2016-07-08T07:15:04.711Z,58.22
2016-07-08T07:16:04.739Z,58.22
2016-07-08T07:17:04.737Z,57.74
2016-07-08T07:18:04.749Z,58.32
2016-07-08T07:19:04.758Z,58.22
2016-07-08T07:20:04.766Z,58.42
2016-07-08T07:21:04.796Z,58.51
2016-07-08T07:22:04.787Z,58.12
2016-07-08T07:23:04.802Z,58.32
2016-07-08T07:24:04.848Z,58.51
2016-07-08T07:25:04.801Z,58.61
2016-07-08T07:26:04.820Z,58.9
2016-07-08T07:27:04.836Z,59
2016-07-08T07:28:04.862Z,59.09
2016-07-08T07:29:04.841Z,59.28
2016-07-08T07:30:04.879Z,59.28
2016-07-08T07:31:04.877Z,59.28
2016-07-08T07:32:04.880Z,58.9
2016-07-08T07:33:04.875Z,58.8
2016-07-08T07:34:04.906Z,59.19
2016-07-08T07:35:04.904Z,58.9
2016-07-08T07:36:04.905Z,58.7
2016-07-08T07:37:04.908Z,58.7
2016-07-08T07:38:04.940Z,58.42
2016-07-08T07:39:04.933Z,58.61
2016-07-08T07:40:04.938Z,59.28
2016-07-08T07:41:04.965Z,58.61
2016-07-08T07:42:04.971Z,58.51
2016-07-08T07:43:04.978Z,58.51
2016-07-08T07:44:04.978Z,58.22
2016-07-08T07:45:05.010Z,58.32
2016-07-08T07:46:05.024Z,58.42
2016-07-08T07:47:05.012Z,58.51
2016-07-08T07:48:05.033Z,58.42
2016-07-08T07:49:05.042Z,58.42
2016-07-08T07:50:05.061Z,58.7
2016-07-08T07:51:05.062Z,58.51
2016-07-08T07:52:05.066Z,58.51
2016-07-08T07:53:05.090Z,58.54
2016-07-08T07:54:05.076Z,58.32
2016-07-08T07:55:05.100Z,57.93
2016-07-08T07:56:05.091Z,58.06
2016-07-08T07:57:05.104Z,58.22
2016-07-08T07:58:05.113Z,58.35
2016-07-08T07:59:05.111Z,58.12
2016-07-08T08:00:05.151Z,58.54
2016-07-08T08:01:05.130Z,58.51
2016-07-08T08:02:05.156Z,58.54
2016-07-08T08:03:05.143Z,58.45
2016-07-08T08:04:05.154Z,58.73
2016-07-08T08:05:05.166Z,58.25
2016-07-08T08:06:05.176Z,58.06
2016-07-08T08:07:05.202Z,58.15
2016-07-08T08:08:05.224Z,58.06
2016-07-08T08:09:05.210Z,58.15
2016-07-08T08:10:05.224Z,58.25
2016-07-08T08:11:05.240Z,58.64
2016-07-08T08:12:05.260Z,58.06
2016-07-08T08:13:05.240Z,58.06
2016-07-08T08:14:05.267Z,58.25
2016-07-08T08:15:05.292Z,58.06
2016-07-08T08:16:05.265Z,57.96
2016-07-08T08:17:05.273Z,58.15
2016-07-08T08:18:05.314Z,58.15
2016-07-08T08:19:05.309Z,57.87
2016-07-08T08:20:05.313Z,58.54
2016-07-08T08:21:05.343Z,58.54
2016-07-08T08:22:05.334Z,58.54
2016-07-08T08:23:05.352Z,58.45
2016-07-08T08:24:05.363Z,58.64
2016-07-08T08:25:05.368Z,58.54
2016-07-08T08:26:05.387Z,58.54
2016-07-08T08:27:05.362Z,58.45
2016-07-08T08:28:05.406Z,58.35
2016-07-08T08:29:05.393Z,58.15
2016-07-08T08:30:05.390Z,58.25
2016-07-08T08:31:05.436Z,58.06
2016-07-08T08:32:05.431Z,58.54
2016-07-08T08:33:05.438Z,58.64
2016-07-08T08:34:05.461Z,58.35
2016-07-08T08:35:05.439Z,58.83
2016-07-08T08:36:05.447Z,58.25
2016-07-08T08:37:05.450Z,58.73
2016-07-08T08:38:05.465Z,58.25
2016-07-08T08:39:05.497Z,58.35
2016-07-08T08:40:05.502Z,58.35
2016-07-08T08:41:05.509Z,58.73
2016-07-08T08:42:05.505Z,58.35
2016-07-08T08:43:05.541Z,58.15
2016-07-08T08:44:05.533Z,58.06
2016-07-08T08:45:05.552Z,58.15
2016-07-08T08:46:05.538Z,58.15
2016-07-08T08:47:05.556Z,58.35
2016-07-08T08:48:05.584Z,58.15
2016-07-08T08:49:05.565Z,58.25
2016-07-08T08:50:05.603Z,58.15
2016-07-08T08:51:05.588Z,58.15
2016-07-08T08:52:05.590Z,58.15
2016-07-08T08:53:05.626Z,58.15
2016-07-08T08:54:05.620Z,58.15
2016-07-08T08:55:05.640Z,57.96
2016-07-08T08:56:44.004Z,58.25
2016-07-08T08:57:05.641Z,58.06
2016-07-08T08:58:05.647Z,58.25
2016-07-08T08:59:05.657Z,58.25
2016-07-08T09:00:05.667Z,57.79
2016-07-08T09:01:05.672Z,58.25
2016-07-08T09:02:05.684Z,58.25
2016-07-08T09:03:05.692Z,58.25
2016-07-08T09:04:05.726Z,58.15
2016-07-08T09:05:05.723Z,58.25
2016-07-08T09:06:05.721Z,57.99
2016-07-08T09:07:05.731Z,57.79
2016-07-08T09:08:05.762Z,57.79
2016-07-08T09:09:05.764Z,57.96
2016-07-08T09:10:05.756Z,57.79
2016-07-08T09:11:05.789Z,57.79
2016-07-08T09:12:05.788Z,58.37
2016-07-08T09:13:05.785Z,58.18
2016-07-08T09:14:05.841Z,58.37
2016-07-08T09:15:05.807Z,57.89
2016-07-08T09:16:05.818Z,58.18
2016-07-08T09:17:05.834Z,57.99
2016-07-08T09:18:05.860Z,57.99
2016-07-08T09:19:05.855Z,57.99
2016-07-08T09:20:06.148Z,57.79
2016-07-08T09:21:05.872Z,57.41
2016-07-08T09:22:05.894Z,58.18
2016-07-08T09:23:05.878Z,58.18
2016-07-08T09:24:05.924Z,58.28
2016-07-08T09:25:05.919Z,58.18
2016-07-08T09:26:05.921Z,58.57
2016-07-08T09:27:05.950Z,57.99
2016-07-08T09:28:05.927Z,58.28
2016-07-08T09:29:05.956Z,57.99
2016-07-08T09:30:05.954Z,57.89
2016-07-08T09:31:05.965Z,57.99
2016-07-08T09:32:05.971Z,57.99
2016-07-08T09:33:05.978Z,57.99
2016-07-08T09:34:06.003Z,58.28
2016-07-08T09:35:06.024Z,58.18
2016-07-08T09:36:06.032Z,58.18
2016-07-08T09:37:06.012Z,58.28
2016-07-08T09:38:06.044Z,58.18
2016-07-08T09:39:06.060Z,58.28
2016-07-08T09:40:06.062Z,58.37
2016-07-08T09:41:06.065Z,58.09
2016-07-08T09:42:06.081Z,57.89
2016-07-08T09:43:06.089Z,57.79
2016-07-08T09:44:06.104Z,57.79
2016-07-08T09:45:06.102Z,57.99
2016-07-08T09:46:06.112Z,57.89
2016-07-08T09:47:06.109Z,57.82
2016-07-08T09:48:06.143Z,57.82
2016-07-08T09:49:06.131Z,57.79
2016-07-08T09:50:06.142Z,57.51
2016-07-08T09:51:06.173Z,57.41
2016-07-08T09:52:06.157Z,57.41
2016-07-08T09:53:06.186Z,57.63
2016-07-08T09:54:06.188Z,57.7
2016-07-08T09:55:06.198Z,57.21
2016-07-08T09:56:06.196Z,57.63
2016-07-08T09:57:06.210Z,57.34
2016-07-08T09:58:06.217Z,57.41
2016-07-08T09:59:06.225Z,57.54
2016-07-08T10:00:06.233Z,57.63
2016-07-08T10:01:06.259Z,57.41
2016-07-08T10:02:06.271Z,57.21
2016-07-08T10:03:06.277Z,57.15
2016-07-08T10:04:06.259Z,57.24
2016-07-08T10:05:06.281Z,57.15
2016-07-08T10:06:06.303Z,57.44
2016-07-08T10:07:06.323Z,57.05
2016-07-08T10:08:06.319Z,57.15
2016-07-08T10:09:06.305Z,57.15
2016-07-08T10:10:06.325Z,57.24
2016-07-08T10:11:06.338Z,57.34
2016-07-08T10:12:06.364Z,57.05
2016-07-08T10:13:06.358Z,57.24
2016-07-08T10:14:06.386Z,56.95
2016-07-08T10:15:06.373Z,57.05
2016-07-08T10:16:06.402Z,57.05
2016-07-08T10:17:06.404Z,56.95
2016-07-08T10:18:06.401Z,56.95
2016-07-08T10:19:06.404Z,56.95
2016-07-08T10:20:06.427Z,56.67
2016-07-08T10:21:06.432Z,56.57
2016-07-08T10:22:06.424Z,56.86
2016-07-08T10:23:06.444Z,56.86
2016-07-08T10:24:06.479Z,56.95
2016-07-08T10:25:06.497Z,56.95
2016-07-08T10:26:06.475Z,56.47
2016-07-08T10:27:06.505Z,56.57
2016-07-08T10:28:06.521Z,56.95
2016-07-08T10:29:06.511Z,56.76
2016-07-08T10:30:06.525Z,56.67
2016-07-08T10:31:06.513Z,56.76
2016-07-08T10:32:06.527Z,57.05
2016-07-08T10:33:06.536Z,56.67
2016-07-08T10:34:06.553Z,56.76
2016-07-08T10:35:06.579Z,56.95
2016-07-08T10:36:06.557Z,56.86
2016-07-08T10:37:06.587Z,56.86
2016-07-08T10:38:06.607Z,56.57
2016-07-08T10:39:06.610Z,56.86
2016-07-08T10:40:06.617Z,56.98
2016-07-08T10:41:06.607Z,56.6
2016-07-08T10:42:06.647Z,56.79
2016-07-08T10:43:06.627Z,56.88
2016-07-08T10:44:06.628Z,56.88
2016-07-08T10:45:06.650Z,56.79
2016-07-08T10:46:06.654Z,56.6
2016-07-08T10:47:06.671Z,56.7
2016-07-08T10:48:06.682Z,56.7
2016-07-08T10:49:06.692Z,56.7
2016-07-08T10:50:06.691Z,56.6
2016-07-08T10:51:06.713Z,56.5
2016-07-08T10:52:06.720Z,56.5
2016-07-08T10:53:06.729Z,56.3
2016-07-08T10:54:06.758Z,56.3
2016-07-08T10:55:06.742Z,56.5
2016-07-08T10:56:06.760Z,56.3
2016-07-08T10:57:06.774Z,56.3
2016-07-08T10:58:06.767Z,56.21
2016-07-08T10:59:06.808Z,56.3
2016-07-08T11:00:06.797Z,56.4
2016-07-08T11:01:06.803Z,56.21
2016-07-08T11:02:06.804Z,56.5
2016-07-08T11:03:06.835Z,56.6
2016-07-08T11:04:06.843Z,56.7
2016-07-08T11:05:06.859Z,56.4
2016-07-08T11:06:06.865Z,56.4
2016-07-08T11:07:06.855Z,56.5
2016-07-08T11:08:06.894Z,56.5
2016-07-08T11:09:06.902Z,56.4
2016-07-08T11:10:06.913Z,56.3
2016-07-08T11:11:06.913Z,56.4
2016-07-08T11:12:06.930Z,56.4
2016-07-08T11:13:06.919Z,56.3
2016-07-08T11:14:06.950Z,56.5
2016-07-08T11:15:06.960Z,56.3
2016-07-08T11:16:06.957Z,56.6
2016-07-08T11:17:06.958Z,56.3
2016-07-08T11:18:06.975Z,56.3
2016-07-08T11:19:06.997Z,56.02
2016-07-08T11:20:07.004Z,56.5
2016-07-08T11:21:06.990Z,56.02
2016-07-08T11:22:07.024Z,55.92
2016-07-08T11:23:07.001Z,56.21
2016-07-08T11:24:07.014Z,56.14
2016-07-08T11:25:07.039Z,55.92
2016-07-08T11:26:07.062Z,55.76
2016-07-08T11:27:07.074Z,56.14
2016-07-08T11:28:07.070Z,55.63
2016-07-08T11:29:07.070Z,55.85
2016-07-08T11:30:07.079Z,55.85
2016-07-08T11:31:07.099Z,55.85
2016-07-08T11:32:07.089Z,55.76
2016-07-08T11:33:07.095Z,55.76
2016-07-08T11:34:07.193Z,55.76
2016-07-08T11:35:07.120Z,55.66
2016-07-08T11:36:07.132Z,55.56
2016-07-08T11:37:07.157Z,55.66
2016-07-08T11:38:07.166Z,55.66
2016-07-08T11:39:07.151Z,55.56
2016-07-08T11:40:07.183Z,55.46
2016-07-08T11:41:07.208Z,54.98
2016-07-08T11:42:07.202Z,54.88
2016-07-08T11:43:07.222Z,54.98
2016-07-08T11:44:07.237Z,54.88
2016-07-08T11:45:07.225Z,55.36
2016-07-08T11:46:07.255Z,54.88
2016-07-08T11:47:07.281Z,55.17
2016-07-08T11:48:07.270Z,55.07
2016-07-08T11:49:07.281Z,54.98
2016-07-08T11:50:07.262Z,54.98
2016-07-08T11:51:07.277Z,54.98
2016-07-08T11:52:07.300Z,54.88
2016-07-08T11:53:07.297Z,55.07
2016-07-08T11:54:07.327Z,55.17
2016-07-08T11:55:07.322Z,55.07
2016-07-08T11:56:07.329Z,54.49
2016-07-08T11:57:07.361Z,55.07
2016-07-08T11:58:07.336Z,54.79
2016-07-08T11:59:07.359Z,54.81
2016-07-08T12:00:07.359Z,54.49
2016-07-08T12:01:07.398Z,54.52
2016-07-08T12:02:07.403Z,54.52
2016-07-08T12:03:07.408Z,55.1
2016-07-08T12:04:07.428Z,55.2
2016-07-08T12:05:07.414Z,55
2016-07-08T12:06:07.446Z,55
2016-07-08T12:07:07.454Z,55
2016-07-08T12:08:07.434Z,54.91
2016-07-08T12:09:07.449Z,55
2016-07-08T12:10:07.454Z,55
2016-07-08T12:11:07.462Z,55.2
2016-07-08T12:12:07.481Z,55.1
2016-07-08T12:13:07.504Z,55
2016-07-08T12:14:07.500Z,55.3
2016-07-08T12:15:07.532Z,55
2016-07-08T12:16:07.510Z,55.2
2016-07-08T12:17:07.541Z,55.3
2016-07-08T12:18:07.550Z,55.49
2016-07-08T12:19:07.562Z,55.68
2016-07-08T12:20:07.588Z,55.88
2016-07-08T12:21:07.585Z,55.68
2016-07-08T12:22:07.564Z,55.68
2016-07-08T12:23:07.583Z,55.78
2016-07-08T12:24:07.608Z,55.88
2016-07-08T12:25:07.617Z,55.68
2016-07-08T12:26:07.604Z,56.16
2016-07-08T12:27:07.645Z,56.1
2016-07-08T12:28:07.618Z,56.59
2016-07-08T12:29:07.630Z,56.65
2016-07-08T12:30:07.643Z,56.75
2016-07-08T12:31:07.670Z,56.59
2016-07-08T12:32:07.692Z,57.14
2016-07-08T12:33:07.703Z,56.75
2016-07-08T12:34:07.701Z,57.23
2016-07-08T12:35:07.712Z,57.55
2016-07-08T12:36:07.716Z,57.55
2016-07-08T12:37:07.723Z,57.17
2016-07-08T12:38:07.753Z,57.26
2016-07-08T12:39:07.758Z,57.45
2016-07-08T12:40:07.747Z,57.84
2016-07-08T12:41:07.748Z,57.65
2016-07-08T12:42:07.768Z,57.65
2016-07-08T12:43:07.780Z,58.04
2016-07-08T12:44:07.808Z,57.65
2016-07-08T12:45:07.792Z,58.04
2016-07-08T12:46:07.802Z,58.42
2016-07-08T12:47:07.813Z,57.94
2016-07-08T12:48:07.813Z,58.04
2016-07-08T12:49:07.845Z,57.94
2016-07-08T12:50:07.841Z,58.42
2016-07-08T12:51:07.865Z,58.33
2016-07-08T12:52:07.854Z,58.23
2016-07-08T12:53:07.860Z,58.42
2016-07-08T12:54:07.892Z,58.23
2016-07-08T12:55:07.882Z,58.42